Terminal Aerodrome Forecast
Issued by NWS

Home | Current Version | Previous Version | Text Only | Print | Product List | Glossary Off
Versions: 1 2 3 4 5 6 7 8 9 10 11 12 13 14 15 16 17 18 19 20 21 22 23 24 25 26 27 28 29 30 31 32 33 34 35 36 37 38 39 40 41 42 43 44 45 46 47 48 49 50

000
FTUS43 KLOT 192300
TAFGYY
TAF
KGYY 192330Z 2000/2024 23011G17KT P6SM VCSH SCT050
     FM200130 26006KT P6SM FEW050
     FM200800 VRB03KT 4SM BR SCT250
     FM201400 27009KT P6SM SCT040
     FM201900 02007KT P6SM FEW040=

USA.gov is the U.S. government's official web portal to all federal, state and local government web resources and services.